Time;durP1;ratioP1;P1;durP2;ratioP2;P2;SDS_P1;SDS_P2;PMS_P1;PMS_P2;Temp;Humidity;BMP_temperature;BMP_pressure;BME280_temperature;BME280_humidity;BME280_pressure;Samples;Min_cycle;Max_cycle;Signal;HPM_P1;HPM_P2
2022/12/11 00:00:46;;;;;;;5.93;4.03;;;;;;;20.42;32.48;101157.19;5037926;28;20480;-70
2022/12/11 00:03:11;;;;;;;6.72;4.20;;;;;;;20.38;32.52;101149.75;5033804;28;20040;-70
2022/12/11 00:05:40;;;;;;;7.47;4.10;;;;;;;20.38;32.55;101152.38;5033269;28;20037;-71
2022/12/11 00:08:06;;;;;;;5.95;3.53;;;;;;;20.34;32.09;101138.69;5031998;28;20043;-68
2022/12/11 00:10:32;;;;;;;7.03;3.60;;;;;;;20.36;32.50;101157.84;5032178;28;20044;-71
2022/12/11 00:12:58;;;;;;;6.32;4.05;;;;;;;20.31;32.61;101149.63;5027779;28;20045;-71
2022/12/11 00:15:24;;;;;;;6.10;3.75;;;;;;;20.31;32.59;101154.09;5032901;28;20102;-71
2022/12/11 00:17:49;;;;;;;5.97;4.00;;;;;;;20.32;32.60;101147.81;5028464;28;20037;-71
2022/12/11 00:20:15;;;;;;;5.43;3.53;;;;;;;20.29;32.60;101151.63;5030572;28;20076;-70
2022/12/11 00:22:40;;;;;;;6.60;4.32;;;;;;;20.23;32.62;101147.03;5034737;28;20033;-69
2022/12/11 00:25:06;;;;;;;6.20;3.95;;;;;;;20.26;32.75;101149.31;5037680;28;20040;-69
2022/12/11 00:27:32;;;;;;;7.30;4.45;;;;;;;20.26;32.62;101141.38;5027952;28;20116;-69
2022/12/11 00:29:58;;;;;;;6.07;3.80;;;;;;;20.19;32.73;101143.91;5029621;28;20047;-70
2022/12/11 00:32:23;;;;;;;5.65;3.75;;;;;;;20.22;32.74;101138.25;5036433;28;20041;-70
2022/12/11 00:34:49;;;;;;;6.72;4.28;;;;;;;20.28;32.47;101139.38;5033803;28;20091;-69
2022/12/11 00:37:14;;;;;;;7.05;4.20;;;;;;;20.16;32.62;101125.75;5026981;28;20099;-70
2022/12/11 00:39:40;;;;;;;5.30;3.80;;;;;;;20.15;32.86;101142.63;5028412;28;20045;-70
2022/12/11 00:42:06;;;;;;;5.40;3.47;;;;;;;20.16;32.83;101135.50;5029350;28;20040;-69
2022/12/11 00:44:32;;;;;;;6.07;3.70;;;;;;;20.17;32.82;101124.75;5030214;28;20736;-69
2022/12/11 00:46:57;;;;;;;4.78;3.28;;;;;;;20.16;32.94;101140.78;5027589;28;20025;-70
2022/12/11 00:49:23;;;;;;;6.70;3.60;;;;;;;20.17;32.70;101145.09;5027725;28;20052;-70
2022/12/11 00:51:48;;;;;;;6.30;3.38;;;;;;;20.23;32.76;101153.13;5032253;28;20628;-69
2022/12/11 00:54:14;;;;;;;6.45;4.13;;;;;;;20.08;33.01;101160.16;5034272;28;20049;-70
2022/12/11 00:56:39;;;;;;;6.38;4.03;;;;;;;20.10;32.85;101158.16;5028718;28;20111;-70
2022/12/11 00:59:05;;;;;;;5.22;3.72;;;;;;;20.11;32.85;101154.53;5029093;28;20043;-69
2022/12/11 01:01:31;;;;;;;6.43;4.05;;;;;;;20.15;32.79;101152.38;5029654;28;20040;-69
2022/12/11 01:03:56;;;;;;;5.25;3.83;;;;;;;20.08;32.89;101154.88;5027260;28;20087;-69
2022/12/11 01:06:24;;;;;;;6.82;4.07;;;;;;;20.13;32.87;101157.84;5025954;28;20052;-70
2022/12/11 01:10:22;;;;;;;6.80;3.80;;;;;;;20.07;32.89;101153.22;5023228;28;20642;-69
2022/12/11 01:11:40;;;;;;;5.60;4.00;;;;;;;20.13;32.82;101151.72;5030933;28;20032;-69
2022/12/11 01:14:06;;;;;;;5.20;3.67;;;;;;;20.10;32.92;101154.69;5022199;28;20062;-69
2022/12/11 01:16:32;;;;;;;6.32;3.92;;;;;;;20.09;32.94;101147.75;5030975;28;20061;-69
2022/12/11 01:18:58;;;;;;;5.82;3.80;;;;;;;20.05;32.75;101147.28;5028372;28;20180;-69
2022/12/11 01:21:24;;;;;;;6.47;3.95;;;;;;;19.97;33.00;101133.31;5033903;28;20043;-70
2022/12/11 01:23:50;;;;;;;5.85;3.60;;;;;;;20.03;33.31;101144.00;5039760;28;20028;-70
2022/12/11 01:26:16;;;;;;;4.45;3.20;;;;;;;20.05;33.13;101143.81;5034437;28;20036;-69
2022/12/11 01:28:43;;;;;;;5.38;3.50;;;;;;;20.05;33.03;101141.19;5030412;28;20481;-70
2022/12/11 01:31:14;;;;;;;6.47;3.85;;;;;;;20.07;32.98;101144.47;5031575;28;20566;-70
2022/12/11 01:33:39;;;;;;;5.10;3.03;;;;;;;20.04;32.97;101150.09;5032238;28;20052;-70
2022/12/11 01:36:16;;;;;;;5.13;3.58;;;;;;;20.02;33.02;101146.81;5026173;28;20048;-70
2022/12/11 01:38:42;;;;;;;5.28;3.30;;;;;;;19.94;33.18;101155.63;5030501;28;20511;-69
2022/12/11 01:41:08;;;;;;;6.28;4.00;;;;;;;19.97;33.12;101157.09;5028122;28;20148;-70
2022/12/11 01:43:54;;;;;;;5.22;3.83;;;;;;;19.97;33.02;101155.28;5034380;28;20048;-70
2022/12/11 01:46:19;;;;;;;5.47;3.25;;;;;;;19.96;33.12;101161.56;5033248;28;20632;-70
2022/12/11 01:48:45;;;;;;;5.32;3.55;;;;;;;19.93;33.16;101156.63;5030813;28;20037;-71
2022/12/11 01:51:10;;;;;;;5.97;3.70;;;;;;;19.89;33.19;101161.41;5031483;28;20158;-70
2022/12/11 01:53:41;;;;;;;5.32;3.08;;;;;;;19.94;33.15;101165.38;5033426;28;20048;-69
2022/12/11 01:56:07;;;;;;;5.03;3.30;;;;;;;19.95;33.13;101165.19;5030250;28;20533;-69
2022/12/11 01:58:40;;;;;;;6.75;3.90;;;;;;;19.85;33.27;101159.28;5030507;28;20098;-69
2022/12/11 02:01:06;;;;;;;5.65;3.25;;;;;;;19.95;33.22;101162.56;5030205;28;20037;-70
2022/12/11 02:03:32;;;;;;;5.00;3.00;;;;;;;19.88;33.19;101156.28;5027374;28;20684;-69
2022/12/11 02:06:01;;;;;;;4.95;3.22;;;;;;;19.93;33.23;101159.25;5029022;28;20120;-69
2022/12/11 02:08:27;;;;;;;5.22;3.28;;;;;;;19.84;33.31;101155.81;5034986;28;20040;-69
2022/12/11 02:11:14;;;;;;;5.22;3.33;;;;;;;19.88;33.03;101154.47;5032578;28;20109;-69
2022/12/11 02:13:56;;;;;;;5.55;3.17;;;;;;;19.83;33.32;101156.81;5025981;28;20123;-69
2022/12/11 02:16:52;;;;;;;4.63;3.30;;;;;;;19.91;33.27;101154.13;5024114;28;20911;-70
2022/12/11 02:19:36;;;;;;;5.10;3.50;;;;;;;19.86;33.21;101153.00;5030779;28;20033;-70
2022/12/11 02:22:07;;;;;;;4.90;3.20;;;;;;;19.72;33.29;101145.78;5032297;28;20075;-70
2022/12/11 02:24:45;;;;;;;4.28;2.88;;;;;;;19.87;33.16;101157.28;5027304;28;20079;-69
2022/12/11 02:27:31;;;;;;;5.03;3.35;;;;;;;19.80;33.35;101148.41;5030863;28;20029;-70
2022/12/11 02:30:05;;;;;;;5.88;3.53;;;;;;;19.86;33.21;101147.72;5031149;28;20145;-69
2022/12/11 02:32:39;;;;;;;5.80;3.50;;;;;;;19.82;33.37;101152.53;5031520;28;20652;-69
2022/12/11 02:35:15;;;;;;;5.32;3.47;;;;;;;19.75;33.33;101143.66;5028816;28;20072;-70
2022/12/11 02:37:43;;;;;;;4.78;3.22;;;;;;;19.84;33.31;101144.41;5025221;28;20036;-69
2022/12/11 02:40:13;;;;;;;6.32;3.22;;;;;;;19.78;33.38;101145.13;5023939;28;20447;-69
2022/12/11 02:42:41;;;;;;;;;;;;;;;19.79;33.31;101152.88;5041425;28;20036;-70
2022/12/11 02:45:08;;;;;;;6.07;3.55;;;;;;;19.85;33.24;101151.34;5025495;28;20347;-70
2022/12/11 02:47:36;;;;;;;4.57;3.13;;;;;;;19.83;33.25;101145.41;5024479;28;20043;-70
2022/12/11 02:50:06;;;;;;;5.20;3.42;;;;;;;19.79;33.39;101139.66;5031802;28;20606;-70
2022/12/11 02:52:33;;;;;;;4.75;3.50;;;;;;;19.85;33.30;101138.97;5028060;28;20055;-69
2022/12/11 02:55:01;;;;;;;5.60;3.50;;;;;;;19.80;33.39;101137.84;5050228;28;20104;-69
2022/12/11 02:57:36;;;;;;;5.15;3.30;;;;;;;19.73;33.44;101134.22;5031521;28;20045;-69
2022/12/11 03:00:03;;;;;;;5.18;3.08;;;;;;;19.73;33.49;101142.13;5024708;28;20029;-69
2022/12/11 03:02:29;;;;;;;5.38;3.65;;;;;;;19.72;33.40;101140.50;5024021;28;20142;-70
2022/12/11 03:04:56;;;;;;;4.53;3.10;;;;;;;19.68;33.52;101142.66;5024285;28;20037;-69
2022/12/11 03:07:26;;;;;;;4.43;3.00;;;;;;;19.77;33.30;101139.00;5027664;28;20517;-69
2022/12/11 03:09:52;;;;;;;5.32;3.80;;;;;;;19.74;33.43;101131.41;5023670;28;20119;-69
2022/12/11 03:12:28;;;;;;;4.75;3.40;;;;;;;19.71;33.45;101130.94;5034079;28;20098;-69
2022/12/11 03:14:56;;;;;;;5.28;3.10;;;;;;;19.65;33.64;101129.81;5021880;28;20047;-69
2022/12/11 03:17:28;;;;;;;5.80;3.45;;;;;;;19.64;33.50;101124.69;5027398;28;20033;-69
2022/12/11 03:20:06;;;;;;;5.72;3.35;;;;;;;19.64;33.51;101122.88;5029736;28;20566;-69
2022/12/11 03:22:38;;;;;;;5.30;3.22;;;;;;;19.65;33.42;101126.34;5033591;28;20037;-69
2022/12/11 03:25:10;;;;;;;4.90;2.88;;;;;;;19.65;33.53;101129.81;5032717;28;20079;-69
2022/12/11 03:27:44;;;;;;;5.70;3.10;;;;;;;19.59;33.53;101125.22;5029440;28;20037;-69
2022/12/11 03:30:14;;;;;;;4.20;2.83;;;;;;;19.58;33.52;101119.09;5028795;28;20049;-69
2022/12/11 03:32:58;;;;;;;5.03;3.20;;;;;;;19.62;33.72;101124.88;5029746;28;20045;-69
2022/12/11 03:35:38;;;;;;;5.22;3.30;;;;;;;19.66;33.50;101120.06;5023168;28;20072;-69
2022/12/11 03:38:10;;;;;;;4.38;3.15;;;;;;;19.66;33.48;101118.22;5031753;28;20037;-69
2022/12/11 03:40:41;;;;;;;5.25;3.20;;;;;;;19.60;33.33;101113.66;5026525;28;21027;-69
2022/12/11 03:43:07;;;;;;;6.15;3.65;;;;;;;19.62;33.58;101122.22;5022508;28;20180;-69
2022/12/11 03:45:33;;;;;;;5.25;3.38;;;;;;;19.65;33.68;101118.41;5031952;28;22070;-69
2022/12/11 03:48:01;;;;;;;3.75;2.83;;;;;;;19.67;33.47;101121.69;5030508;28;20051;-70
2022/12/11 03:50:30;;;;;;;4.82;3.10;;;;;;;19.77;33.24;101117.03;5027089;28;20037;-70
2022/12/11 03:52:57;;;;;;;5.95;3.20;;;;;;;19.88;33.22;101119.28;5028851;28;20052;-70
2022/12/11 03:55:24;;;;;;;4.40;3.15;;;;;;;20.02;32.96;101113.28;5030450;28;20043;-70
2022/12/11 03:57:49;;;;;;;5.15;3.05;;;;;;;19.99;33.19;101110.97;5034974;28;20040;-69
2022/12/11 04:00:18;;;;;;;4.38;2.75;;;;;;;19.94;33.22;101108.03;5028364;28;20055;-69
2022/12/11 04:02:44;;;;;;;3.85;2.75;;;;;;;20.00;33.04;101115.25;5027418;28;20034;-69
2022/12/11 04:05:10;;;;;;;4.15;2.70;;;;;;;20.01;32.98;101106.34;5029479;28;20052;-69
2022/12/11 04:07:36;;;;;;;4.13;2.53;;;;;;;19.97;33.08;101106.88;5029782;28;20131;-69
2022/12/11 04:10:04;;;;;;;4.38;3.10;;;;;;;19.97;33.00;101112.16;5038958;28;20171;-69
2022/12/11 04:12:29;;;;;;;4.15;2.45;;;;;;;19.98;32.97;101101.41;5032464;28;20052;-69
2022/12/11 04:15:01;;;;;;;4.07;2.85;;;;;;;19.94;33.29;101117.78;5029707;28;20496;-69
2022/12/11 04:25:43;;;;;;;4.22;2.95;;;;;;;19.85;33.27;101103.78;5036301;28;20776;-70
2022/12/11 04:28:09;;;;;;;5.20;3.00;;;;;;;19.90;33.13;101102.25;5037926;28;20036;-69
2022/12/11 04:30:35;;;;;;;5.75;3.13;;;;;;;19.86;33.43;101108.06;5033927;28;20044;-69
2022/12/11 04:33:01;;;;;;;5.43;3.17;;;;;;;19.85;33.46;101103.78;5031416;28;20675;-69
2022/12/11 04:35:26;;;;;;;5.55;3.10;;;;;;;19.83;33.44;101103.13;5034711;28;20590;-69
2022/12/11 04:37:52;;;;;;;4.20;2.63;;;;;;;19.85;33.47;101101.13;5030999;28;20073;-69
2022/12/11 04:40:19;;;;;;;4.75;2.70;;;;;;;19.86;33.38;101102.78;5028906;28;20128;-70
2022/12/11 04:42:44;;;;;;;5.28;3.00;;;;;;;19.80;33.28;101092.91;5026335;28;20045;-69
2022/12/11 04:45:11;;;;;;;3.92;2.80;;;;;;;19.85;33.43;101103.78;5035890;28;20063;-69
2022/12/11 04:47:38;;;;;;;3.97;2.83;;;;;;;19.80;33.46;101104.31;5033345;28;20071;-69
2022/12/11 04:50:05;;;;;;;4.25;2.88;;;;;;;19.83;33.46;101109.25;5030330;28;20033;-69
2022/12/11 04:52:31;;;;;;;5.00;2.90;;;;;;;19.85;33.39;101109.06;5023777;28;20037;-70
2022/12/11 04:54:56;;;;;;;4.40;2.92;;;;;;;19.78;33.37;101105.47;5031724;28;21467;-71
2022/12/11 04:57:22;;;;;;;5.15;3.10;;;;;;;19.74;33.60;101101.50;5037082;28;20045;-69
2022/12/11 04:59:48;;;;;;;4.53;2.60;;;;;;;19.77;33.37;101099.38;5033521;28;20070;-69
2022/12/11 05:02:14;;;;;;;3.72;2.60;;;;;;;19.75;33.52;101097.88;5026198;28;20037;-69
2022/12/11 05:04:40;;;;;;;4.82;2.95;;;;;;;19.68;33.48;101078.44;5029173;28;20495;-69
2022/12/11 05:07:06;;;;;;;5.22;3.05;;;;;;;19.72;33.52;101099.03;5025705;28;20091;-69
2022/12/11 05:09:31;;;;;;;4.00;2.78;;;;;;;19.72;33.78;101091.13;5025756;28;20862;-69
2022/12/11 05:11:57;;;;;;;4.53;2.80;;;;;;;19.74;33.60;101088.31;5028925;28;20037;-69
2022/12/11 05:14:23;;;;;;;4.85;3.03;;;;;;;19.64;33.54;101070.03;5028689;28;20056;-69
2022/12/11 05:16:48;;;;;;;4.18;2.60;;;;;;;19.68;33.60;101086.34;5034148;28;20041;-69
2022/12/11 05:19:15;;;;;;;4.07;3.10;;;;;;;19.69;33.67;101088.81;5037459;28;20392;-70
2022/12/11 05:21:41;;;;;;;4.65;3.38;;;;;;;19.73;33.64;101087.47;5029665;28;20041;-70
2022/12/11 05:24:06;;;;;;;5.15;3.30;;;;;;;19.64;33.54;101077.13;5030342;28;20037;-69
2022/12/11 05:26:32;;;;;;;5.55;3.33;;;;;;;19.66;33.61;101075.13;5031497;28;20056;-70
2022/12/11 05:28:57;;;;;;;5.55;3.08;;;;;;;19.64;33.69;101069.22;5038026;28;20491;-69
2022/12/11 05:31:25;;;;;;;4.30;2.85;;;;;;;19.62;33.65;101072.03;5031412;28;20048;-70
2022/12/11 05:33:52;;;;;;;4.63;2.70;;;;;;;19.61;33.62;101075.66;5028668;28;20594;-70
2022/12/11 05:36:21;;;;;;;5.18;3.45;;;;;;;19.60;33.71;101071.38;5024487;28;20148;-69
2022/12/11 05:38:48;;;;;;;5.57;3.05;;;;;;;19.60;33.77;101071.38;5029465;28;20495;-69
2022/12/11 05:41:16;;;;;;;4.72;2.65;;;;;;;19.54;33.71;101070.22;5024761;28;20033;-69
2022/12/11 05:43:42;;;;;;;4.22;2.70;;;;;;;19.60;33.75;101068.75;5036352;28;20041;-69
2022/12/11 05:46:20;;;;;;;5.03;2.90;;;;;;;19.56;33.65;101076.16;5032769;28;20126;-69
2022/12/11 05:48:47;;;;;;;4.93;3.03;;;;;;;19.59;33.68;101065.28;5024262;28;20041;-69
2022/12/11 05:51:14;;;;;;;5.45;3.22;;;;;;;19.55;33.78;101071.88;5033840;28;20043;-70
2022/12/11 05:53:41;;;;;;;4.80;3.30;;;;;;;19.59;33.69;101072.38;5032761;28;20049;-69
2022/12/11 05:56:10;;;;;;;5.55;3.47;;;;;;;19.63;33.36;101068.38;5039573;28;20060;-69
2022/12/11 05:58:35;;;;;;;4.45;2.72;;;;;;;19.64;33.80;101072.69;5030378;28;20136;-70
2022/12/11 06:01:05;;;;;;;4.82;3.17;;;;;;;19.61;33.73;101068.56;5034016;28;20141;-69
2022/12/11 06:03:30;;;;;;;4.60;2.90;;;;;;;19.67;33.66;101071.50;5028982;28;20482;-69
2022/12/11 06:05:56;;;;;;;3.63;2.60;;;;;;;19.55;33.86;101069.22;5028862;28;20126;-69
2022/12/11 06:08:21;;;;;;;3.53;2.40;;;;;;;19.60;33.88;101076.66;5026713;28;20041;-69
2022/12/11 06:10:49;;;;;;;4.05;2.70;;;;;;;19.65;33.75;101078.78;5027136;28;20043;-69
2022/12/11 06:13:16;;;;;;;4.60;2.50;;;;;;;19.60;33.81;101074.84;5032705;28;20048;-70
2022/12/11 06:15:41;;;;;;;4.57;2.88;;;;;;;19.67;33.67;101082.06;5031981;28;20617;-69
2022/12/11 06:18:07;;;;;;;4.70;2.55;;;;;;;19.58;33.92;101076.00;5029402;28;20045;-70
2022/12/11 06:20:34;;;;;;;4.75;2.72;;;;;;;19.59;33.77;101075.84;5026806;28;20033;-70
2022/12/11 06:23:00;;;;;;;5.10;2.95;;;;;;;19.69;33.71;101080.06;5030151;28;20036;-70
2022/12/11 06:25:26;;;;;;;5.32;3.20;;;;;;;19.66;33.83;101075.97;5034955;28;20072;-69
2022/12/11 06:27:52;;;;;;;4.60;3.03;;;;;;;19.70;33.66;101079.09;5026151;28;20045;-69
2022/12/11 06:30:18;;;;;;;4.82;2.90;;;;;;;20.61;32.51;101075.69;5035925;28;20067;-69
2022/12/11 06:32:43;;;;;;;3.83;2.60;;;;;;;21.82;30.85;101067.41;5031482;28;20037;-69
2022/12/11 06:35:10;;;;;;;4.03;2.38;;;;;;;22.45;30.04;101060.53;5032125;28;20049;-69
2022/12/11 06:37:36;;;;;;;5.40;2.78;;;;;;;22.77;29.35;101059.94;5031233;28;20029;-69
2022/12/11 06:40:04;;;;;;;4.72;2.60;;;;;;;22.62;29.42;101064.53;5028705;28;20098;-69
2022/12/11 06:42:30;;;;;;;5.15;2.70;;;;;;;22.40;29.79;101066.41;5025001;28;20381;-69
2022/12/11 06:44:58;;;;;;;3.85;2.70;;;;;;;22.25;30.22;101071.75;5022848;28;20091;-69
2022/12/11 06:47:25;;;;;;;4.78;2.75;;;;;;;22.11;30.72;101072.66;5026341;28;20029;-70
2022/12/11 06:49:51;;;;;;;3.35;2.67;;;;;;;21.89;30.94;101076.25;5026391;28;20124;-70
2022/12/11 06:52:20;;;;;;;4.93;2.70;;;;;;;21.70;30.97;101075.00;5027699;28;20621;-70
2022/12/11 06:54:46;;;;;;;4.22;2.90;;;;;;;21.50;31.65;101081.91;5026512;28;20617;-69
2022/12/11 06:57:11;;;;;;;3.53;2.35;;;;;;;21.40;32.01;101084.84;5027070;28;20037;-70
2022/12/11 06:59:37;;;;;;;4.15;3.00;;;;;;;21.31;32.17;101085.94;5040533;28;20044;-69
2022/12/11 07:02:03;;;;;;;5.13;2.60;;;;;;;21.22;31.88;101092.31;5039453;28;20037;-69
2022/12/11 07:04:29;;;;;;;4.30;2.83;;;;;;;21.04;32.22;101082.91;5028812;28;20049;-69
2022/12/11 07:06:56;;;;;;;3.95;2.63;;;;;;;21.18;32.18;101098.97;5026301;28;20082;-70
2022/12/11 07:09:22;;;;;;;4.00;2.50;;;;;;;21.21;32.19;101098.63;5033983;28;20047;-69
2022/12/11 07:11:51;;;;;;;5.03;2.88;;;;;;;21.36;31.95;101099.44;5024853;28;20037;-69
2022/12/11 07:14:17;;;;;;;4.07;2.77;;;;;;;21.55;31.93;101090.16;5034328;28;20037;-69
2022/12/11 07:16:42;;;;;;;4.22;2.63;;;;;;;22.09;31.01;101089.78;5029922;28;20116;-69
2022/12/11 07:19:08;;;;;;;4.60;2.95;;;;;;;22.73;30.05;101087.09;5031385;28;20037;-69
2022/12/11 07:21:33;;;;;;;4.00;2.80;;;;;;;22.83;29.82;101083.13;5027846;28;20511;-69
2022/12/11 07:23:59;;;;;;;3.70;2.78;;;;;;;22.77;29.91;101085.69;5014550;28;20041;-68
2022/12/11 07:26:25;;;;;;;4.25;2.47;;;;;;;22.65;30.14;101084.59;5028892;28;20061;-69
2022/12/11 07:28:51;;;;;;;4.28;2.70;;;;;;;22.57;30.50;101090.84;5033383;28;20079;-70
2022/12/11 07:31:22;;;;;;;3.92;2.30;;;;;;;22.35;30.83;101092.69;5034425;28;20040;-68
2022/12/11 07:33:53;;;;;;;4.20;2.70;;;;;;;22.16;31.23;101103.91;5031462;28;20910;-69
2022/12/11 07:36:18;;;;;;;3.70;2.63;;;;;;;21.96;31.18;101090.41;5029927;28;20128;-69
2022/12/11 07:38:44;;;;;;;3.50;2.38;;;;;;;21.87;31.65;101102.13;5040018;28;20038;-69
2022/12/11 07:41:11;;;;;;;5.55;3.45;;;;;;;21.73;32.00;101100.34;5021875;28;20356;-69
2022/12/11 07:43:37;;;;;;;4.28;2.70;;;;;;;21.62;31.81;101102.47;5022721;28;20060;-69
2022/12/11 07:46:19;;;;;;;4.20;2.85;;;;;;;21.57;31.84;101093.44;5024482;28;20045;-69
2022/12/11 07:48:46;;;;;;;4.28;2.53;;;;;;;21.53;31.97;101100.09;5031051;28;20056;-68
2022/12/11 07:51:13;;;;;;;4.05;2.80;;;;;;;21.50;32.09;101093.31;5034504;28;20759;-68
2022/12/11 07:53:39;;;;;;;3.17;2.42;;;;;;;21.51;32.19;101092.31;5044877;28;20039;-69
2022/12/11 07:56:06;;;;;;;3.78;2.58;;;;;;;21.47;31.86;101091.06;5026950;28;20491;-69
2022/12/11 07:58:31;;;;;;;4.05;2.70;;;;;;;21.40;32.12;101087.50;5048602;28;20065;-69
2022/12/11 08:00:57;;;;;;;4.95;2.90;;;;;;;21.34;32.16;101085.56;5036229;28;20065;-69
2022/12/11 08:03:23;;;;;;;3.75;2.80;;;;;;;21.31;32.50;101083.28;5036463;28;20045;-69
2022/12/11 08:05:50;;;;;;;3.95;2.55;;;;;;;21.26;32.45;101091.78;5027662;28;21825;-69
2022/12/11 08:08:16;;;;;;;4.13;2.50;;;;;;;21.21;32.32;101090.69;5032404;28;20051;-69
2022/12/11 08:10:42;;;;;;;4.80;2.80;;;;;;;21.14;32.54;101085.25;5032223;28;20045;-69
2022/12/11 08:13:08;;;;;;;4.32;2.50;;;;;;;21.14;32.53;101087.91;5033303;28;20096;-69
2022/12/11 08:15:35;;;;;;;3.10;2.30;;;;;;;21.07;32.77;101089.66;5035921;28;20724;-69
2022/12/11 08:18:00;;;;;;;4.07;2.53;;;;;;;21.06;32.65;101083.53;5030304;28;20055;-69
2022/12/11 08:20:26;;;;;;;4.85;2.78;;;;;;;21.02;32.79;101087.56;5035161;28;20495;-69
2022/12/11 08:22:52;;;;;;;6.07;3.20;;;;;;;21.03;32.42;101091.84;5035263;28;20451;-69
2022/12/11 08:25:18;;;;;;;4.35;2.30;;;;;;;20.96;32.97;101090.09;5036369;28;20099;-69
2022/12/11 08:27:43;;;;;;;3.25;2.50;;;;;;;20.93;32.91;101096.56;5026592;28;20065;-69
2022/12/11 08:30:09;;;;;;;4.75;2.78;;;;;;;20.91;33.02;101089.81;5031695;28;20176;-69
2022/12/11 08:32:35;;;;;;;4.40;2.80;;;;;;;20.85;32.90;101101.97;5036892;28;20039;-69
2022/12/11 08:35:00;;;;;;;4.15;2.80;;;;;;;20.89;32.79;101097.13;5034439;28;20040;-68
2022/12/11 08:37:26;;;;;;;4.90;3.00;;;;;;;21.08;32.41;101093.94;5032368;28;20037;-69
2022/12/11 08:39:52;;;;;;;4.00;2.75;;;;;;;21.71;31.83;101105.81;5029310;28;20033;-68
2022/12/11 08:42:17;;;;;;;4.00;2.47;;;;;;;22.39;30.53;101098.44;5030783;28;20052;-68
2022/12/11 08:44:43;;;;;;;4.93;2.70;;;;;;;22.54;30.29;101105.31;5030706;28;20492;-69
2022/12/11 08:47:08;;;;;;;3.33;2.38;;;;;;;22.50;30.62;101106.72;5030564;28;20099;-69
2022/12/11 08:49:35;;;;;;;3.92;2.72;;;;;;;22.34;30.53;101106.97;5033076;28;20084;-69
2022/12/11 08:52:02;;;;;;;4.80;2.80;;;;;;;22.17;31.25;101111.69;5033622;28;21854;-69
2022/12/11 08:54:28;;;;;;;3.88;2.60;;;;;;;21.93;31.64;101104.06;5027069;28;20103;-69
2022/12/11 08:56:53;;;;;;;4.25;2.70;;;;;;;21.84;31.58;101111.28;5037526;28;20174;-68
2022/12/11 08:59:19;;;;;;;4.47;2.50;;;;;;;21.73;31.87;101109.13;5032408;28;20044;-68
2022/12/11 09:01:45;;;;;;;4.43;2.70;;;;;;;21.62;31.85;101102.47;5031206;28;20036;-68
2022/12/11 09:04:10;;;;;;;4.85;2.45;;;;;;;21.57;32.14;101104.84;5028421;28;20174;-69
2022/12/11 09:06:36;;;;;;;4.22;2.72;;;;;;;21.53;32.07;101105.38;5038118;28;20045;-68
2022/12/11 09:09:02;;;;;;;4.60;3.25;;;;;;;21.52;32.13;101107.22;5030176;28;20064;-74
2022/12/11 09:11:32;;;;;;;5.07;2.88;;;;;;;21.45;32.29;101106.31;5035038;28;20047;-68
2022/12/11 09:13:58;;;;;;;3.88;2.55;;;;;;;21.44;32.29;101098.53;5031025;28;20132;-68
2022/12/11 09:16:25;;;;;;;4.05;2.70;;;;;;;21.38;32.16;101095.63;5034179;28;20033;-68
2022/12/11 09:18:53;;;;;;;4.93;2.75;;;;;;;21.34;32.31;101096.16;5033301;28;20045;-68
2022/12/11 09:21:22;;;;;;;5.13;3.03;;;;;;;21.28;32.51;101089.78;5030248;28;20043;-67
2022/12/11 09:23:48;;;;;;;4.97;3.00;;;;;;;21.17;32.62;101086.72;5031422;28;20041;-68
2022/12/11 09:26:15;;;;;;;4.68;3.28;;;;;;;21.14;32.32;101082.63;5024786;28;20713;-68
2022/12/11 09:28:42;;;;;;;4.25;3.00;;;;;;;21.11;32.54;101075.88;5033688;28;20119;-68
2022/12/11 09:31:18;;;;;;;5.05;2.95;;;;;;;21.09;32.56;101079.69;5036294;28;20033;-67
2022/12/11 09:33:45;;;;;;;3.63;2.80;;;;;;;21.03;32.45;101075.97;5030288;28;20167;-67
2022/12/11 09:36:11;;;;;;;5.47;3.45;;;;;;;21.06;32.40;101074.78;5049377;28;20028;-68
2022/12/11 09:38:36;;;;;;;5.07;2.90;;;;;;;21.01;32.76;101077.16;5032812;28;20234;-68
2022/12/11 09:41:19;;;;;;;4.10;3.00;;;;;;;20.91;32.62;101071.28;5031089;28;20410;-68
2022/12/11 09:43:58;;;;;;;5.15;2.80;;;;;;;20.89;32.90;101071.47;5033643;28;20618;-68
2022/12/11 09:46:24;;;;;;;5.25;3.03;;;;;;;20.95;32.77;101073.38;5032844;28;20434;-68
2022/12/11 09:48:52;;;;;;;4.60;3.00;;;;;;;21.15;32.56;101076.31;5031406;28;20033;-68
2022/12/11 09:51:26;;;;;;;4.30;2.75;;;;;;;21.32;32.19;101072.50;5028183;28;20040;-68
2022/12/11 09:53:56;;;;;;;4.72;2.97;;;;;;;21.56;32.27;101075.88;5032698;28;20041;-68
2022/12/11 09:56:45;;;;;;;5.15;3.65;;;;;;;21.50;32.15;101073.97;5030902;28;20045;-68
2022/12/11 09:59:28;;;;;;;4.38;2.95;;;;;;;21.45;32.28;101077.16;5031865;28;20633;-68
2022/12/11 10:02:26;;;;;;;4.00;3.00;;;;;;;21.41;32.49;101079.38;5032982;28;20037;-68
2022/12/11 10:04:58;;;;;;;4.70;3.33;;;;;;;21.40;32.75;101079.56;5036826;28;20064;-68
2022/12/11 10:07:36;;;;;;;5.13;2.97;;;;;;;21.33;32.62;101078.63;5047625;28;20039;-68
2022/12/11 10:10:12;;;;;;;5.15;3.08;;;;;;;21.33;32.78;101079.44;5035792;28;20046;-68
2022/12/11 10:12:38;;;;;;;6.60;3.65;;;;;;;21.23;33.01;101081.53;5039780;28;20048;-76
2022/12/11 10:15:13;;;;;;;5.25;2.63;;;;;;;21.35;32.82;101084.56;5037962;28;20625;-75
2022/12/11 10:17:40;;;;;;;5.00;3.15;;;;;;;21.33;33.01;101076.78;5040925;28;20025;-72
2022/12/11 10:20:23;;;;;;;4.82;2.90;;;;;;;21.34;33.03;101077.63;5033242;28;20136;-75
2022/12/11 10:22:51;;;;;;;6.22;3.28;;;;;;;21.32;33.43;101071.69;5037105;28;20083;-71
2022/12/11 10:25:30;;;;;;;5.88;3.47;;;;;;;21.20;33.54;101068.66;5040243;28;20041;-71
2022/12/11 10:27:56;;;;;;;4.70;2.58;;;;;;;21.37;33.58;101071.97;5030422;28;21033;-68
2022/12/11 10:30:32;;;;;;;5.15;3.13;;;;;;;21.53;33.44;101077.06;5039019;28;20132;-68
2022/12/11 10:33:10;;;;;;;4.85;2.92;;;;;;;21.84;32.82;101062.75;5035875;28;20115;-71
2022/12/11 10:35:41;;;;;;;4.45;2.85;;;;;;;21.87;32.78;101068.50;5036997;28;20124;-72
2022/12/11 10:38:12;;;;;;;6.82;3.28;;;;;;;21.78;32.99;101068.81;5034407;28;20048;-69
2022/12/11 10:40:41;;;;;;;6.57;3.20;;;;;;;21.70;33.27;101065.22;5030229;28;20037;-72
2022/12/11 10:43:07;;;;;;;5.93;2.95;;;;;;;21.62;33.41;101062.72;5028691;28;20045;-69
2022/12/11 10:45:32;;;;;;;6.82;3.50;;;;;;;21.62;33.65;101064.53;5032030;28;20033;-73
2022/12/11 10:48:24;;;;;;;4.55;2.90;;;;;;;21.65;33.62;101058.88;5035218;28;20056;-75
2022/12/11 10:51:00;;;;;;;4.88;3.25;;;;;;;21.61;33.81;101058.41;5033073;28;20048;-72
2022/12/11 10:53:26;;;;;;;6.22;3.00;;;;;;;21.55;33.71;101059.16;5036374;28;20037;-71
2022/12/11 10:55:52;;;;;;;4.38;2.90;;;;;;;21.56;33.99;101060.00;5027496;28;20126;-74
2022/12/11 10:58:24;;;;;;;5.00;2.80;;;;;;;21.47;33.93;101051.31;5035861;28;20120;-74
2022/12/11 11:01:03;;;;;;;7.05;3.20;;;;;;;21.37;34.30;101054.25;5033220;28;20046;-71
2022/12/11 11:03:29;;;;;;;5.45;3.13;;;;;;;21.40;34.10;101053.06;5029213;28;20037;-70
2022/12/11 11:06:21;;;;;;;5.68;2.92;;;;;;;21.36;34.04;101057.06;5028287;28;20037;-70
2022/12/11 11:08:50;;;;;;;5.78;3.20;;;;;;;21.25;34.31;101045.13;5026902;28;20084;-70
2022/12/11 11:11:25;;;;;;;4.88;3.20;;;;;;;21.39;34.16;101060.19;5031626;28;20045;-70
2022/12/11 11:14:02;;;;;;;5.70;3.13;;;;;;;21.49;33.82;101054.59;5025319;28;20076;-69
2022/12/11 11:16:28;;;;;;;5.13;3.33;;;;;;;21.48;33.74;101052.13;5030342;28;20532;-70
2022/12/11 11:18:56;;;;;;;5.50;3.33;;;;;;;21.48;33.79;101044.19;5029851;28;20041;-69
2022/12/11 11:21:25;;;;;;;5.07;2.97;;;;;;;21.49;33.88;101048.47;5027820;28;20041;-69
2022/12/11 11:23:53;;;;;;;6.00;4.32;;;;;;;21.11;34.85;101044.09;4983321;28;20052;-69
2022/12/11 11:26:21;;;;;;;5.22;3.63;;;;;;;21.29;34.55;101045.56;5027491;28;20687;-70
2022/12/11 11:28:50;;;;;;;6.10;3.35;;;;;;;21.30;34.20;101044.56;5029959;28;20048;-69
2022/12/11 11:31:16;;;;;;;5.93;3.38;;;;;;;21.30;34.09;101036.63;5030888;28;20037;-70
2022/12/11 11:33:51;;;;;;;6.47;3.78;;;;;;;21.37;34.26;101034.91;5036329;28;20098;-69
2022/12/11 11:36:21;;;;;;;5.47;3.58;;;;;;;21.29;34.10;101041.09;5027433;28;20041;-70
2022/12/11 11:38:58;;;;;;;6.57;4.03;;;;;;;21.26;34.43;101041.47;5019377;28;20511;-70